This is the latest recevied weather packets stored in our database for station/object KD4KKF. If no packets are shown the sender has not sent any weather packets the latest 10 day(s).
| Time | Temp. | Humidity | Pressure | Rain* | Wind** | Luminosity | Snow |
|---|---|---|---|---|---|---|---|
| 1777150053 | 27.22° C | 67% | 1007.1 hPa | 0 mm | - | 657 W/m² | - |
| 1777149748 | 26.67° C | 68% | 1007.1 hPa | 0 mm | - | 627 W/m² | - |
| 1777149446 | 27.22° C | 68% | 1007.2 hPa | 0 mm | - | 206 W/m² | - |
| 1777149142 | 26.67° C | 69% | 1007.3 hPa | 0 mm | - | 703 W/m² | - |
| 1777148841 | 26.67° C | 68% | 1007.2 hPa | 0 mm | - | 397 W/m² | - |
| 1777148539 | 27.78° C | 67% | 1007.4 hPa | 0 mm | - | 488 W/m² | - |
| 1777148234 | 27.22° C | 67% | 1007.5 hPa | 0 mm | - | 706 W/m² | - |
| 1777147931 | 26.67° C | 68% | 1007.5 hPa | 0 mm | - | 734 W/m² | - |
| 1777147627 | 27.22° C | 66% | 1007.4 hPa | 0 mm | - | 744 W/m² | - |
| 1777147322 | 26.11° C | 69% | 1007.8 hPa | 0 mm | - | 714 W/m² | - |
| 1777147018 | 26.67° C | 67% | 1007.8 hPa | 0 mm | - | 410 W/m² | - |
| 1777146715 | 26.67° C | 65% | 1007.7 hPa | 0 mm | - | 833 W/m² | - |
| 1777146409 | 27.78° C | 63% | 1007.7 hPa | 0 mm | - | 142 W/m² | - |
| 1777146107 | 27.22° C | 65% | 1007.7 hPa | 0 mm | - | 772 W/m² | - |
| 1777145807 | 26.11° C | 66% | 1007.8 hPa | 0 mm | - | 768 W/m² | - |
| 1777145504 | 26.11° C | 67% | 1007.8 hPa | 0 mm | - | 168 W/m² | - |
| 1777145199 | 26.67° C | 67% | 1007.8 hPa | 0 mm | - | 573 W/m² | - |
| 1777144894 | 25.56° C | 66% | 1007.8 hPa | 0 mm | - | 220 W/m² | - |
| 1777144594 | 25.56° C | 67% | 1008 hPa | 0 mm | - | 489 W/m² | - |
| 1777144289 | 26.11° C | 66% | 1008.1 hPa | 0 mm | - | 237 W/m² | - |
| 1777143986 | 26.67° C | 67% | 1008.1 hPa | 0 mm | - | 254 W/m² | - |
| 1777143682 | 27.22° C | 66% | 1008.1 hPa | 0 mm | - | 393 W/m² | - |
| 1777143379 | 26.67° C | 68% | 1008.2 hPa | 0 mm | - | 964 W/m² | - |
| 1777143075 | 26.67° C | 67% | 1008.2 hPa | 0 mm | - | 839 W/m² | - |
| 1777142770 | 25.56° C | 69% | 1008.2 hPa | 0 mm | - | 363 W/m² | - |
* Rain latest hour (hover to see other rain measurements)
** Current wind speed in m/s (hover to see current wind gust speed)